sensor_id;sensor_type;location;lat;lon;timestamp;P1;durP1;ratioP1;P2;durP2;ratioP2
58222;SDS011;44020;50.890;15.796;2022-08-19T00:01:44;15.40;;;12.40;;
58222;SDS011;44020;50.890;15.796;2022-08-19T00:04:14;16.10;;;12.50;;
58222;SDS011;44020;50.890;15.796;2022-08-19T00:06:45;13.80;;;12.40;;
58222;SDS011;44020;50.890;15.796;2022-08-19T00:09:15;15.40;;;11.80;;
58222;SDS011;44020;50.890;15.796;2022-08-19T00:11:44;12.60;;;11.30;;
58222;SDS011;44020;50.890;15.796;2022-08-19T00:14:13;16.60;;;11.80;;
58222;SDS011;44020;50.890;15.796;2022-08-19T00:16:43;13.40;;;12.00;;
58222;SDS011;44020;50.890;15.796;2022-08-19T00:19:12;15.10;;;12.70;;
58222;SDS011;44020;50.890;15.796;2022-08-19T00:21:41;13.00;;;11.50;;
58222;SDS011;44020;50.890;15.796;2022-08-19T00:24:09;16.30;;;12.10;;
58222;SDS011;44020;50.890;15.796;2022-08-19T00:26:38;13.20;;;11.80;;
58222;SDS011;44020;50.890;15.796;2022-08-19T00:29:06;13.80;;;12.40;;
58222;SDS011;44020;50.890;15.796;2022-08-19T00:31:34;13.30;;;11.90;;
58222;SDS011;44020;50.890;15.796;2022-08-19T00:34:02;16.00;;;12.50;;
58222;SDS011;44020;50.890;15.796;2022-08-19T00:36:29;14.90;;;12.80;;
58222;SDS011;44020;50.890;15.796;2022-08-19T00:38:56;14.70;;;12.10;;
58222;SDS011;44020;50.890;15.796;2022-08-19T00:41:23;15.60;;;12.20;;
58222;SDS011;44020;50.890;15.796;2022-08-19T00:44:03;13.30;;;11.60;;
58222;SDS011;44020;50.890;15.796;2022-08-19T00:46:31;12.80;;;11.60;;
58222;SDS011;44020;50.890;15.796;2022-08-19T00:49:00;12.90;;;11.60;;
58222;SDS011;44020;50.890;15.796;2022-08-19T00:51:32;12.70;;;11.30;;
58222;SDS011;44020;50.890;15.796;2022-08-19T00:54:01;12.80;;;11.10;;
58222;SDS011;44020;50.890;15.796;2022-08-19T00:56:30;13.10;;;11.60;;
58222;SDS011;44020;50.890;15.796;2022-08-19T00:58:58;13.10;;;11.20;;
58222;SDS011;44020;50.890;15.796;2022-08-19T01:01:26;12.50;;;11.10;;
58222;SDS011;44020;50.890;15.796;2022-08-19T01:03:53;14.00;;;11.40;;
58222;SDS011;44020;50.890;15.796;2022-08-19T01:06:20;13.50;;;12.00;;
58222;SDS011;44020;50.890;15.796;2022-08-19T01:08:48;13.20;;;11.30;;
58222;SDS011;44020;50.890;15.796;2022-08-19T01:11:15;14.10;;;11.60;;
58222;SDS011;44020;50.890;15.796;2022-08-19T01:13:42;12.90;;;11.40;;
58222;SDS011;44020;50.890;15.796;2022-08-19T01:16:10;13.90;;;11.70;;
58222;SDS011;44020;50.890;15.796;2022-08-19T01:18:39;15.50;;;12.10;;
58222;SDS011;44020;50.890;15.796;2022-08-19T01:21:19;15.50;;;11.20;;
58222;SDS011;44020;50.890;15.796;2022-08-19T01:23:57;15.10;;;11.70;;
58222;SDS011;44020;50.890;15.796;2022-08-19T01:26:25;17.70;;;11.50;;
58222;SDS011;44020;50.890;15.796;2022-08-19T01:28:54;13.90;;;11.90;;
58222;SDS011;44020;50.890;15.796;2022-08-19T01:31:24;14.20;;;11.90;;
58222;SDS011;44020;50.890;15.796;2022-08-19T01:33:54;13.20;;;11.70;;
58222;SDS011;44020;50.890;15.796;2022-08-19T01:36:33;13.50;;;11.90;;
58222;SDS011;44020;50.890;15.796;2022-08-19T01:39:01;14.50;;;11.30;;
58222;SDS011;44020;50.890;15.796;2022-08-19T01:41:32;12.40;;;10.90;;
58222;SDS011;44020;50.890;15.796;2022-08-19T01:43:59;13.90;;;11.60;;
58222;SDS011;44020;50.890;15.796;2022-08-19T01:46:30;13.10;;;11.80;;
58222;SDS011;44020;50.890;15.796;2022-08-19T01:48:58;14.20;;;11.10;;
58222;SDS011;44020;50.890;15.796;2022-08-19T01:51:26;14.50;;;11.60;;
58222;SDS011;44020;50.890;15.796;2022-08-19T01:53:53;13.50;;;11.40;;
58222;SDS011;44020;50.890;15.796;2022-08-19T01:56:21;13.00;;;11.60;;
58222;SDS011;44020;50.890;15.796;2022-08-19T01:58:53;13.50;;;11.70;;
58222;SDS011;44020;50.890;15.796;2022-08-19T02:01:23;13.30;;;11.00;;
58222;SDS011;44020;50.890;15.796;2022-08-19T02:03:50;11.90;;;10.70;;
58222;SDS011;44020;50.890;15.796;2022-08-19T02:06:19;12.80;;;11.00;;
58222;SDS011;44020;50.890;15.796;2022-08-19T02:08:47;14.30;;;11.40;;
58222;SDS011;44020;50.890;15.796;2022-08-19T02:11:19;13.70;;;11.10;;
58222;SDS011;44020;50.890;15.796;2022-08-19T02:13:48;13.90;;;11.70;;
58222;SDS011;44020;50.890;15.796;2022-08-19T02:16:17;13.30;;;10.80;;
58222;SDS011;44020;50.890;15.796;2022-08-19T02:18:45;15.50;;;10.90;;
58222;SDS011;44020;50.890;15.796;2022-08-19T02:21:18;15.20;;;11.20;;
58222;SDS011;44020;50.890;15.796;2022-08-19T02:23:46;13.10;;;11.30;;
58222;SDS011;44020;50.890;15.796;2022-08-19T02:26:13;12.60;;;11.30;;
58222;SDS011;44020;50.890;15.796;2022-08-19T02:28:41;12.90;;;11.10;;
58222;SDS011;44020;50.890;15.796;2022-08-19T02:31:13;13.30;;;10.90;;
58222;SDS011;44020;50.890;15.796;2022-08-19T02:33:42;11.80;;;10.60;;
58222;SDS011;44020;50.890;15.796;2022-08-19T02:36:10;12.60;;;11.00;;
58222;SDS011;44020;50.890;15.796;2022-08-19T02:38:39;11.70;;;10.50;;
58222;SDS011;44020;50.890;15.796;2022-08-19T02:41:12;11.70;;;10.50;;
58222;SDS011;44020;50.890;15.796;2022-08-19T02:43:42;13.90;;;11.20;;
58222;SDS011;44020;50.890;15.796;2022-08-19T02:46:16;14.40;;;11.40;;
58222;SDS011;44020;50.890;15.796;2022-08-19T02:48:44;13.00;;;11.20;;
58222;SDS011;44020;50.890;15.796;2022-08-19T02:51:15;13.30;;;10.10;;
58222;SDS011;44020;50.890;15.796;2022-08-19T02:53:46;11.60;;;10.50;;
58222;SDS011;44020;50.890;15.796;2022-08-19T02:56:14;12.10;;;10.60;;
58222;SDS011;44020;50.890;15.796;2022-08-19T02:58:41;12.60;;;10.40;;
58222;SDS011;44020;50.890;15.796;2022-08-19T03:01:09;11.40;;;9.80;;
58222;SDS011;44020;50.890;15.796;2022-08-19T03:03:37;11.90;;;10.40;;
58222;SDS011;44020;50.890;15.796;2022-08-19T03:06:06;14.50;;;10.80;;
58222;SDS011;44020;50.890;15.796;2022-08-19T03:08:35;11.80;;;10.60;;
58222;SDS011;44020;50.890;15.796;2022-08-19T03:11:03;11.60;;;10.40;;
58222;SDS011;44020;50.890;15.796;2022-08-19T03:13:31;11.50;;;10.00;;
58222;SDS011;44020;50.890;15.796;2022-08-19T03:15:58;12.00;;;10.60;;
58222;SDS011;44020;50.890;15.796;2022-08-19T03:18:25;13.20;;;10.80;;
58222;SDS011;44020;50.890;15.796;2022-08-19T03:20:52;12.80;;;11.10;;
58222;SDS011;44020;50.890;15.796;2022-08-19T03:23:21;14.90;;;12.30;;
58222;SDS011;44020;50.890;15.796;2022-08-19T03:25:52;12.50;;;11.20;;
58222;SDS011;44020;50.890;15.796;2022-08-19T03:28:20;12.50;;;10.90;;
58222;SDS011;44020;50.890;15.796;2022-08-19T03:30:58;12.40;;;10.80;;
58222;SDS011;44020;50.890;15.796;2022-08-19T03:33:34;12.90;;;10.10;;
58222;SDS011;44020;50.890;15.796;2022-08-19T03:38:37;14.80;;;10.70;;
58222;SDS011;44020;50.890;15.796;2022-08-19T03:41:08;13.80;;;10.80;;
58222;SDS011;44020;50.890;15.796;2022-08-19T03:43:38;11.30;;;10.10;;
58222;SDS011;44020;50.890;15.796;2022-08-19T03:46:08;14.10;;;10.30;;
58222;SDS011;44020;50.890;15.796;2022-08-19T03:48:38;12.60;;;10.80;;
58222;SDS011;44020;50.890;15.796;2022-08-19T03:51:07;13.80;;;10.60;;
58222;SDS011;44020;50.890;15.796;2022-08-19T03:53:41;11.60;;;10.40;;
58222;SDS011;44020;50.890;15.796;2022-08-19T03:56:09;11.50;;;10.20;;
58222;SDS011;44020;50.890;15.796;2022-08-19T03:58:37;14.30;;;10.20;;
58222;SDS011;44020;50.890;15.796;2022-08-19T04:01:06;14.90;;;11.00;;
58222;SDS011;44020;50.890;15.796;2022-08-19T04:03:36;13.50;;;10.70;;
58222;SDS011;44020;50.890;15.796;2022-08-19T04:06:20;14.40;;;10.80;;
58222;SDS011;44020;50.890;15.796;2022-08-19T04:08:52;14.50;;;10.80;;
58222;SDS011;44020;50.890;15.796;2022-08-19T04:11:26;12.90;;;10.60;;
58222;SDS011;44020;50.890;15.796;2022-08-19T04:13:55;11.40;;;10.20;;
58222;SDS011;44020;50.890;15.796;2022-08-19T04:16:24;11.80;;;10.40;;
58222;SDS011;44020;50.890;15.796;2022-08-19T04:18:55;14.40;;;10.70;;
58222;SDS011;44020;50.890;15.796;2022-08-19T04:21:26;12.20;;;10.40;;
58222;SDS011;44020;50.890;15.796;2022-08-19T04:23:54;12.70;;;10.70;;
58222;SDS011;44020;50.890;15.796;2022-08-19T04:26:26;13.30;;;10.30;;
58222;SDS011;44020;50.890;15.796;2022-08-19T04:29:02;12.00;;;10.80;;
58222;SDS011;44020;50.890;15.796;2022-08-19T04:31:32;13.50;;;11.80;;
58222;SDS011;44020;50.890;15.796;2022-08-19T04:34:06;14.60;;;11.80;;
58222;SDS011;44020;50.890;15.796;2022-08-19T04:36:35;12.40;;;10.70;;
58222;SDS011;44020;50.890;15.796;2022-08-19T04:39:05;13.40;;;11.90;;
58222;SDS011;44020;50.890;15.796;2022-08-19T04:41:37;13.30;;;11.70;;
58222;SDS011;44020;50.890;15.796;2022-08-19T04:44:23;13.20;;;11.70;;
58222;SDS011;44020;50.890;15.796;2022-08-19T04:46:50;12.80;;;11.30;;
58222;SDS011;44020;50.890;15.796;2022-08-19T04:49:18;15.30;;;11.00;;
58222;SDS011;44020;50.890;15.796;2022-08-19T04:51:49;12.40;;;11.10;;
58222;SDS011;44020;50.890;15.796;2022-08-19T04:54:18;14.10;;;11.00;;
58222;SDS011;44020;50.890;15.796;2022-08-19T04:56:49;14.70;;;10.90;;
58222;SDS011;44020;50.890;15.796;2022-08-19T04:59:17;11.80;;;10.50;;
58222;SDS011;44020;50.890;15.796;2022-08-19T05:01:46;17.00;;;11.10;;
58222;SDS011;44020;50.890;15.796;2022-08-19T05:04:19;12.50;;;11.00;;
58222;SDS011;44020;50.890;15.796;2022-08-19T05:06:47;13.80;;;10.40;;
58222;SDS011;44020;50.890;15.796;2022-08-19T05:09:14;15.30;;;11.10;;
58222;SDS011;44020;50.890;15.796;2022-08-19T05:11:43;13.60;;;10.90;;
58222;SDS011;44020;50.890;15.796;2022-08-19T05:14:10;12.00;;;10.60;;
58222;SDS011;44020;50.890;15.796;2022-08-19T05:16:41;13.10;;;11.00;;
58222;SDS011;44020;50.890;15.796;2022-08-19T05:19:11;12.00;;;10.40;;
58222;SDS011;44020;50.890;15.796;2022-08-19T05:21:57;13.90;;;10.50;;
58222;SDS011;44020;50.890;15.796;2022-08-19T05:25:03;11.90;;;10.10;;
58222;SDS011;44020;50.890;15.796;2022-08-19T05:27:32;13.20;;;10.40;;
58222;SDS011;44020;50.890;15.796;2022-08-19T05:30:00;12.30;;;10.70;;
58222;SDS011;44020;50.890;15.796;2022-08-19T05:32:27;12.30;;;10.60;;
58222;SDS011;44020;50.890;15.796;2022-08-19T05:34:55;15.30;;;10.90;;
58222;SDS011;44020;50.890;15.796;2022-08-19T05:37:22;13.80;;;10.70;;
58222;SDS011;44020;50.890;15.796;2022-08-19T05:39:53;12.20;;;10.90;;
58222;SDS011;44020;50.890;15.796;2022-08-19T05:42:21;16.20;;;10.90;;
58222;SDS011;44020;50.890;15.796;2022-08-19T05:44:49;11.60;;;10.30;;
58222;SDS011;44020;50.890;15.796;2022-08-19T05:47:17;13.80;;;10.30;;
58222;SDS011;44020;50.890;15.796;2022-08-19T05:49:46;12.40;;;10.80;;
58222;SDS011;44020;50.890;15.796;2022-08-19T05:52:14;12.60;;;10.20;;
58222;SDS011;44020;50.890;15.796;2022-08-19T05:54:42;12.10;;;10.20;;
58222;SDS011;44020;50.890;15.796;2022-08-19T05:57:09;12.90;;;9.50;;
58222;SDS011;44020;50.890;15.796;2022-08-19T05:59:36;13.20;;;10.10;;
58222;SDS011;44020;50.890;15.796;2022-08-19T06:02:04;13.30;;;9.60;;
58222;SDS011;44020;50.890;15.796;2022-08-19T06:04:33;12.50;;;9.10;;
58222;SDS011;44020;50.890;15.796;2022-08-19T06:07:00;12.90;;;9.80;;
58222;SDS011;44020;50.890;15.796;2022-08-19T06:09:28;11.00;;;9.20;;
58222;SDS011;44020;50.890;15.796;2022-08-19T06:11:56;15.00;;;9.60;;
58222;SDS011;44020;50.890;15.796;2022-08-19T06:14:28;11.60;;;9.00;;
58222;SDS011;44020;50.890;15.796;2022-08-19T06:16:56;16.50;;;9.00;;
58222;SDS011;44020;50.890;15.796;2022-08-19T06:19:26;13.40;;;9.30;;
58222;SDS011;44020;50.890;15.796;2022-08-19T06:21:55;12.70;;;8.20;;
58222;SDS011;44020;50.890;15.796;2022-08-19T06:24:26;13.00;;;8.60;;
58222;SDS011;44020;50.890;15.796;2022-08-19T06:26:55;11.10;;;8.30;;
58222;SDS011;44020;50.890;15.796;2022-08-19T06:29:24;10.00;;;7.90;;
58222;SDS011;44020;50.890;15.796;2022-08-19T06:31:53;9.90;;;8.30;;
58222;SDS011;44020;50.890;15.796;2022-08-19T06:34:22;11.30;;;8.50;;
58222;SDS011;44020;50.890;15.796;2022-08-19T06:36:50;9.40;;;8.20;;
58222;SDS011;44020;50.890;15.796;2022-08-19T06:39:20;12.00;;;8.30;;
58222;SDS011;44020;50.890;15.796;2022-08-19T06:41:51;13.60;;;8.00;;
58222;SDS011;44020;50.890;15.796;2022-08-19T06:44:21;14.60;;;8.20;;
58222;SDS011;44020;50.890;15.796;2022-08-19T06:46:52;10.90;;;7.30;;
58222;SDS011;44020;50.890;15.796;2022-08-19T06:49:20;16.50;;;7.60;;
58222;SDS011;44020;50.890;15.796;2022-08-19T06:51:49;9.20;;;7.10;;
58222;SDS011;44020;50.890;15.796;2022-08-19T06:54:16;10.00;;;6.90;;
58222;SDS011;44020;50.890;15.796;2022-08-19T06:56:44;10.90;;;7.40;;
58222;SDS011;44020;50.890;15.796;2022-08-19T06:59:16;11.70;;;7.40;;
58222;SDS011;44020;50.890;15.796;2022-08-19T07:01:45;10.50;;;7.40;;
58222;SDS011;44020;50.890;15.796;2022-08-19T07:04:15;8.60;;;7.00;;
58222;SDS011;44020;50.890;15.796;2022-08-19T07:06:48;7.90;;;6.50;;
58222;SDS011;44020;50.890;15.796;2022-08-19T07:09:17;8.00;;;5.90;;
58222;SDS011;44020;50.890;15.796;2022-08-19T07:11:49;9.60;;;6.10;;
58222;SDS011;44020;50.890;15.796;2022-08-19T07:14:19;8.50;;;6.30;;
58222;SDS011;44020;50.890;15.796;2022-08-19T07:16:49;10.90;;;6.30;;
58222;SDS011;44020;50.890;15.796;2022-08-19T07:19:18;8.20;;;5.60;;
58222;SDS011;44020;50.890;15.796;2022-08-19T07:21:49;8.40;;;5.90;;
58222;SDS011;44020;50.890;15.796;2022-08-19T07:24:21;5.40;;;4.90;;
58222;SDS011;44020;50.890;15.796;2022-08-19T07:26:53;7.00;;;5.10;;
58222;SDS011;44020;50.890;15.796;2022-08-19T07:29:23;6.60;;;4.30;;
58222;SDS011;44020;50.890;15.796;2022-08-19T07:31:50;6.20;;;4.60;;
58222;SDS011;44020;50.890;15.796;2022-08-19T07:34:18;8.10;;;4.60;;
58222;SDS011;44020;50.890;15.796;2022-08-19T07:36:45;6.10;;;4.10;;
58222;SDS011;44020;50.890;15.796;2022-08-19T07:39:27;5.90;;;4.70;;
58222;SDS011;44020;50.890;15.796;2022-08-19T07:41:57;5.00;;;4.40;;
58222;SDS011;44020;50.890;15.796;2022-08-19T07:44:26;7.20;;;4.70;;
58222;SDS011;44020;50.890;15.796;2022-08-19T07:46:54;6.20;;;4.80;;
58222;SDS011;44020;50.890;15.796;2022-08-19T07:49:23;6.50;;;4.90;;
58222;SDS011;44020;50.890;15.796;2022-08-19T07:51:58;4.70;;;4.20;;
58222;SDS011;44020;50.890;15.796;2022-08-19T07:54:31;5.80;;;4.70;;
58222;SDS011;44020;50.890;15.796;2022-08-19T07:57:01;6.00;;;4.40;;
58222;SDS011;44020;50.890;15.796;2022-08-19T07:59:29;5.70;;;4.30;;
58222;SDS011;44020;50.890;15.796;2022-08-19T08:01:56;6.90;;;4.20;;
58222;SDS011;44020;50.890;15.796;2022-08-19T08:04:27;6.80;;;4.60;;
58222;SDS011;44020;50.890;15.796;2022-08-19T08:07:13;5.30;;;4.60;;
58222;SDS011;44020;50.890;15.796;2022-08-19T08:09:59;5.90;;;4.70;;
58222;SDS011;44020;50.890;15.796;2022-08-19T08:12:27;6.70;;;4.90;;
58222;SDS011;44020;50.890;15.796;2022-08-19T08:14:59;6.60;;;4.70;;
58222;SDS011;44020;50.890;15.796;2022-08-19T08:17:30;4.90;;;4.40;;
58222;SDS011;44020;50.890;15.796;2022-08-19T08:19:58;4.70;;;4.20;;
58222;SDS011;44020;50.890;15.796;2022-08-19T08:22:25;6.10;;;4.40;;
58222;SDS011;44020;50.890;15.796;2022-08-19T08:25:12;6.50;;;4.60;;
58222;SDS011;44020;50.890;15.796;2022-08-19T08:27:42;6.40;;;5.30;;
58222;SDS011;44020;50.890;15.796;2022-08-19T08:30:16;9.70;;;6.40;;
58222;SDS011;44020;50.890;15.796;2022-08-19T08:32:48;7.60;;;6.40;;
58222;SDS011;44020;50.890;15.796;2022-08-19T08:35:17;7.00;;;6.30;;
58222;SDS011;44020;50.890;15.796;2022-08-19T08:37:46;7.60;;;6.90;;
58222;SDS011;44020;50.890;15.796;2022-08-19T08:40:18;9.30;;;7.20;;
58222;SDS011;44020;50.890;15.796;2022-08-19T08:42:58;8.80;;;7.10;;
58222;SDS011;44020;50.890;15.796;2022-08-19T08:45:35;7.70;;;6.90;;
58222;SDS011;44020;50.890;15.796;2022-08-19T08:48:14;10.20;;;7.30;;
58222;SDS011;44020;50.890;15.796;2022-08-19T08:50:47;8.30;;;6.70;;
58222;SDS011;44020;50.890;15.796;2022-08-19T08:53:19;10.00;;;7.90;;
58222;SDS011;44020;50.890;15.796;2022-08-19T08:55:46;8.40;;;7.50;;
58222;SDS011;44020;50.890;15.796;2022-08-19T08:58:30;9.20;;;8.00;;
58222;SDS011;44020;50.890;15.796;2022-08-19T09:01:10;9.10;;;7.80;;
58222;SDS011;44020;50.890;15.796;2022-08-19T09:03:39;9.20;;;8.10;;
58222;SDS011;44020;50.890;15.796;2022-08-19T09:17:08;10.40;;;8.20;;
58222;SDS011;44020;50.890;15.796;2022-08-19T09:19:36;8.70;;;7.60;;
58222;SDS011;44020;50.890;15.796;2022-08-19T09:22:16;10.20;;;8.80;;
58222;SDS011;44020;50.890;15.796;2022-08-19T09:24:43;10.80;;;8.70;;
58222;SDS011;44020;50.890;15.796;2022-08-19T09:27:11;11.60;;;9.50;;
58222;SDS011;44020;50.890;15.796;2022-08-19T09:29:38;10.90;;;9.60;;
58222;SDS011;44020;50.890;15.796;2022-08-19T09:32:04;10.80;;;9.20;;
58222;SDS011;44020;50.890;15.796;2022-08-19T09:34:32;10.20;;;9.30;;
58222;SDS011;44020;50.890;15.796;2022-08-19T09:36:59;15.50;;;9.50;;
58222;SDS011;44020;50.890;15.796;2022-08-19T09:39:26;11.10;;;9.90;;
58222;SDS011;44020;50.890;15.796;2022-08-19T09:41:53;13.40;;;9.50;;
58222;SDS011;44020;50.890;15.796;2022-08-19T09:44:20;10.60;;;9.50;;
58222;SDS011;44020;50.890;15.796;2022-08-19T09:46:46;12.80;;;9.70;;
58222;SDS011;44020;50.890;15.796;2022-08-19T09:49:14;11.10;;;9.70;;
58222;SDS011;44020;50.890;15.796;2022-08-19T09:51:43;12.40;;;9.40;;
58222;SDS011;44020;50.890;15.796;2022-08-19T09:54:10;10.70;;;9.70;;
58222;SDS011;44020;50.890;15.796;2022-08-19T09:56:37;11.10;;;9.90;;
58222;SDS011;44020;50.890;15.796;2022-08-19T09:59:04;11.30;;;10.20;;
58222;SDS011;44020;50.890;15.796;2022-08-19T10:01:31;13.30;;;11.10;;
58222;SDS011;44020;50.890;15.796;2022-08-19T10:04:00;12.20;;;10.10;;
58222;SDS011;44020;50.890;15.796;2022-08-19T10:06:29;12.80;;;11.30;;
58222;SDS011;44020;50.890;15.796;2022-08-19T10:08:59;12.40;;;10.60;;
58222;SDS011;44020;50.890;15.796;2022-08-19T10:11:29;15.00;;;10.50;;
58222;SDS011;44020;50.890;15.796;2022-08-19T10:13:55;12.80;;;10.10;;
58222;SDS011;44020;50.890;15.796;2022-08-19T10:16:23;13.20;;;11.30;;
58222;SDS011;44020;50.890;15.796;2022-08-19T10:18:52;12.00;;;10.30;;
58222;SDS011;44020;50.890;15.796;2022-08-19T10:21:22;16.40;;;10.90;;
58222;SDS011;44020;50.890;15.796;2022-08-19T10:23:53;13.40;;;10.80;;
58222;SDS011;44020;50.890;15.796;2022-08-19T10:26:25;12.30;;;11.10;;
58222;SDS011;44020;50.890;15.796;2022-08-19T10:28:53;12.00;;;10.10;;
58222;SDS011;44020;50.890;15.796;2022-08-19T10:31:25;13.20;;;11.90;;
58222;SDS011;44020;50.890;15.796;2022-08-19T10:33:55;13.50;;;11.00;;
58222;SDS011;44020;50.890;15.796;2022-08-19T10:36:29;12.50;;;11.20;;
58222;SDS011;44020;50.890;15.796;2022-08-19T10:38:59;12.30;;;10.90;;
58222;SDS011;44020;50.890;15.796;2022-08-19T10:41:29;12.40;;;10.80;;
58222;SDS011;44020;50.890;15.796;2022-08-19T10:44:02;12.40;;;11.00;;
58222;SDS011;44020;50.890;15.796;2022-08-19T10:46:32;12.20;;;10.60;;
58222;SDS011;44020;50.890;15.796;2022-08-19T10:49:02;13.40;;;11.20;;
58222;SDS011;44020;50.890;15.796;2022-08-19T10:51:30;12.80;;;11.20;;
58222;SDS011;44020;50.890;15.796;2022-08-19T10:54:17;13.20;;;11.00;;
58222;SDS011;44020;50.890;15.796;2022-08-19T10:56:44;12.70;;;11.20;;
58222;SDS011;44020;50.890;15.796;2022-08-19T10:59:28;12.30;;;11.00;;
58222;SDS011;44020;50.890;15.796;2022-08-19T11:01:59;11.90;;;10.70;;
58222;SDS011;44020;50.890;15.796;2022-08-19T11:04:27;12.70;;;11.40;;
58222;SDS011;44020;50.890;15.796;2022-08-19T11:06:54;15.80;;;11.30;;
58222;SDS011;44020;50.890;15.796;2022-08-19T11:09:23;13.00;;;10.70;;
58222;SDS011;44020;50.890;15.796;2022-08-19T11:11:51;13.00;;;10.60;;
58222;SDS011;44020;50.890;15.796;2022-08-19T11:14:19;14.10;;;11.30;;
58222;SDS011;44020;50.890;15.796;2022-08-19T11:16:48;13.40;;;11.80;;
58222;SDS011;44020;50.890;15.796;2022-08-19T11:19:15;14.00;;;11.40;;
58222;SDS011;44020;50.890;15.796;2022-08-19T11:21:46;11.20;;;10.10;;
58222;SDS011;44020;50.890;15.796;2022-08-19T11:24:20;13.30;;;11.80;;
58222;SDS011;44020;50.890;15.796;2022-08-19T11:26:50;14.50;;;11.70;;
58222;SDS011;44020;50.890;15.796;2022-08-19T11:29:19;12.70;;;11.50;;
58222;SDS011;44020;50.890;15.796;2022-08-19T11:31:48;14.90;;;11.70;;
58222;SDS011;44020;50.890;15.796;2022-08-19T11:34:17;17.90;;;12.20;;
58222;SDS011;44020;50.890;15.796;2022-08-19T11:36:47;16.60;;;11.80;;
58222;SDS011;44020;50.890;15.796;2022-08-19T11:39:15;14.70;;;12.30;;
58222;SDS011;44020;50.890;15.796;2022-08-19T11:41:44;11.80;;;10.70;;
58222;SDS011;44020;50.890;15.796;2022-08-19T11:44:11;13.10;;;11.10;;
58222;SDS011;44020;50.890;15.796;2022-08-19T11:46:40;11.90;;;10.70;;
58222;SDS011;44020;50.890;15.796;2022-08-19T11:49:13;14.30;;;11.60;;
58222;SDS011;44020;50.890;15.796;2022-08-19T11:51:41;12.00;;;10.70;;
58222;SDS011;44020;50.890;15.796;2022-08-19T11:54:09;11.70;;;10.50;;
58222;SDS011;44020;50.890;15.796;2022-08-19T11:56:43;11.70;;;10.50;;
58222;SDS011;44020;50.890;15.796;2022-08-19T11:59:11;12.00;;;10.70;;
58222;SDS011;44020;50.890;15.796;2022-08-19T12:01:37;11.10;;;10.00;;
58222;SDS011;44020;50.890;15.796;2022-08-19T12:04:07;11.90;;;9.90;;
58222;SDS011;44020;50.890;15.796;2022-08-19T12:06:33;11.80;;;10.60;;
58222;SDS011;44020;50.890;15.796;2022-08-19T12:09:05;14.60;;;10.40;;
58222;SDS011;44020;50.890;15.796;2022-08-19T12:11:35;11.60;;;9.50;;
58222;SDS011;44020;50.890;15.796;2022-08-19T12:14:03;10.50;;;9.50;;
58222;SDS011;44020;50.890;15.796;2022-08-19T12:16:30;11.50;;;10.20;;
58222;SDS011;44020;50.890;15.796;2022-08-19T12:18:59;10.50;;;8.70;;
58222;SDS011;44020;50.890;15.796;2022-08-19T12:21:31;10.80;;;9.50;;
58222;SDS011;44020;50.890;15.796;2022-08-19T12:24:00;10.30;;;8.90;;
58222;SDS011;44020;50.890;15.796;2022-08-19T12:26:29;9.80;;;8.40;;
58222;SDS011;44020;50.890;15.796;2022-08-19T12:28:57;10.70;;;8.20;;
58222;SDS011;44020;50.890;15.796;2022-08-19T12:31:28;9.60;;;8.60;;
58222;SDS011;44020;50.890;15.796;2022-08-19T12:33:55;13.40;;;10.30;;
58222;SDS011;44020;50.890;15.796;2022-08-19T12:36:23;12.50;;;11.20;;
58222;SDS011;44020;50.890;15.796;2022-08-19T12:38:51;15.00;;;11.60;;
58222;SDS011;44020;50.890;15.796;2022-08-19T12:41:19;13.30;;;11.30;;
58222;SDS011;44020;50.890;15.796;2022-08-19T12:43:48;14.10;;;11.80;;
58222;SDS011;44020;50.890;15.796;2022-08-19T12:46:16;13.90;;;12.40;;
58222;SDS011;44020;50.890;15.796;2022-08-19T12:48:44;13.20;;;11.80;;
58222;SDS011;44020;50.890;15.796;2022-08-19T12:51:13;12.80;;;11.50;;
58222;SDS011;44020;50.890;15.796;2022-08-19T12:53:43;16.30;;;11.90;;
58222;SDS011;44020;50.890;15.796;2022-08-19T12:56:11;14.00;;;12.60;;
58222;SDS011;44020;50.890;15.796;2022-08-19T12:58:41;13.50;;;11.60;;
58222;SDS011;44020;50.890;15.796;2022-08-19T13:01:10;12.40;;;11.10;;
58222;SDS011;44020;50.890;15.796;2022-08-19T13:03:38;13.70;;;12.20;;
58222;SDS011;44020;50.890;15.796;2022-08-19T13:06:06;15.60;;;11.00;;
58222;SDS011;44020;50.890;15.796;2022-08-19T13:08:35;11.40;;;10.30;;
58222;SDS011;44020;50.890;15.796;2022-08-19T13:11:13;14.90;;;11.40;;
58222;SDS011;44020;50.890;15.796;2022-08-19T13:13:43;12.40;;;11.20;;
58222;SDS011;44020;50.890;15.796;2022-08-19T13:16:12;12.70;;;10.80;;
58222;SDS011;44020;50.890;15.796;2022-08-19T13:18:41;14.40;;;10.90;;
58222;SDS011;44020;50.890;15.796;2022-08-19T13:21:09;16.20;;;11.10;;
58222;SDS011;44020;50.890;15.796;2022-08-19T13:23:39;14.00;;;11.90;;
58222;SDS011;44020;50.890;15.796;2022-08-19T13:26:07;11.70;;;10.60;;
58222;SDS011;44020;50.890;15.796;2022-08-19T13:28:36;13.10;;;11.70;;
58222;SDS011;44020;50.890;15.796;2022-08-19T13:31:22;16.20;;;11.40;;
58222;SDS011;44020;50.890;15.796;2022-08-19T13:34:10;12.30;;;11.00;;
58222;SDS011;44020;50.890;15.796;2022-08-19T13:36:38;12.20;;;11.00;;
58222;SDS011;44020;50.890;15.796;2022-08-19T13:39:06;12.30;;;11.10;;
58222;SDS011;44020;50.890;15.796;2022-08-19T13:41:36;15.50;;;11.40;;
58222;SDS011;44020;50.890;15.796;2022-08-19T13:44:09;13.30;;;10.90;;
58222;SDS011;44020;50.890;15.796;2022-08-19T13:46:36;13.30;;;11.80;;
58222;SDS011;44020;50.890;15.796;2022-08-19T13:49:02;12.70;;;11.40;;
58222;SDS011;44020;50.890;15.796;2022-08-19T13:51:30;13.10;;;11.30;;
58222;SDS011;44020;50.890;15.796;2022-08-19T13:53:57;12.40;;;11.20;;
58222;SDS011;44020;50.890;15.796;2022-08-19T13:56:24;13.10;;;11.70;;
58222;SDS011;44020;50.890;15.796;2022-08-19T13:58:51;13.20;;;11.20;;
58222;SDS011;44020;50.890;15.796;2022-08-19T14:01:21;13.40;;;11.50;;
58222;SDS011;44020;50.890;15.796;2022-08-19T14:03:48;13.50;;;11.70;;
58222;SDS011;44020;50.890;15.796;2022-08-19T14:06:15;13.90;;;12.30;;
58222;SDS011;44020;50.890;15.796;2022-08-19T14:08:43;13.80;;;11.10;;
58222;SDS011;44020;50.890;15.796;2022-08-19T14:11:10;13.40;;;11.90;;
58222;SDS011;44020;50.890;15.796;2022-08-19T14:13:37;13.90;;;11.70;;
58222;SDS011;44020;50.890;15.796;2022-08-19T14:16:10;15.20;;;12.00;;
58222;SDS011;44020;50.890;15.796;2022-08-19T14:18:39;13.40;;;11.70;;
58222;SDS011;44020;50.890;15.796;2022-08-19T14:21:07;13.20;;;11.70;;
58222;SDS011;44020;50.890;15.796;2022-08-19T14:23:34;15.90;;;12.20;;
58222;SDS011;44020;50.890;15.796;2022-08-19T14:26:09;12.60;;;11.30;;
58222;SDS011;44020;50.890;15.796;2022-08-19T14:28:40;14.00;;;12.30;;
58222;SDS011;44020;50.890;15.796;2022-08-19T14:31:09;15.70;;;12.40;;
58222;SDS011;44020;50.890;15.796;2022-08-19T14:33:46;16.90;;;11.80;;
58222;SDS011;44020;50.890;15.796;2022-08-19T14:36:13;13.30;;;11.30;;
58222;SDS011;44020;50.890;15.796;2022-08-19T14:38:41;15.70;;;12.50;;
58222;SDS011;44020;50.890;15.796;2022-08-19T14:43:37;24.50;;;12.20;;
58222;SDS011;44020;50.890;15.796;2022-08-19T14:46:05;14.90;;;12.10;;